Time;durP1;ratioP1;P1;durP2;ratioP2;P2;SDS_P1;SDS_P2;PMS_P1;PMS_P2;Temp;Humidity;BMP_temperature;BMP_pressure;BME280_temperature;BME280_humidity;BME280_pressure;Samples;Min_cycle;Max_cycle;Signal;HPM_P1;HPM_P2
2023/04/12 00:01:05;;;;;;;;;;;6.90;99.90;;;;;;5066884;28;19924;-62
2023/04/12 00:03:38;;;;;;;;;;;6.90;99.90;;;;;;5067257;28;20014;-62
2023/04/12 00:06:10;;;;;;;;;;;6.90;99.90;;;;;;5071941;28;19978;-62
2023/04/12 00:08:45;;;;;;;;;;;6.90;99.90;;;;;;5071567;28;19924;-63
2023/04/12 00:11:17;;;;;;;;;;;6.90;99.90;;;;;;5053580;28;19925;-63
2023/04/12 00:13:49;;;;;;;;;;;6.90;99.90;;;;;;5053874;28;19963;-63
2023/04/12 00:16:20;;;;;;;;;;;6.90;99.90;;;;;;5069897;28;19925;-62
2023/04/12 00:18:47;;;;;;;;;;;6.90;99.90;;;;;;5071240;28;19927;-62
2023/04/12 00:21:18;;;;;;;;;;;6.90;99.90;;;;;;5070172;28;20419;-62
2023/04/12 00:23:49;;;;;;;;;;;6.90;99.90;;;;;;5065563;28;20292;-63
2023/04/12 00:26:21;;;;;;;;;;;6.90;99.90;;;;;;5070496;28;19927;-62
2023/04/12 00:28:53;;;;;;;;;;;6.90;99.90;;;;;;5053640;28;19925;-62
2023/04/12 00:31:25;;;;;;;;;;;7.00;99.90;;;;;;5070360;28;20462;-63
2023/04/12 00:33:57;;;;;;;;;;;7.00;99.90;;;;;;5071258;28;19920;-63
2023/04/12 00:36:29;;;;;;;;;;;7.00;99.90;;;;;;5050362;28;19920;-63
2023/04/12 00:39:01;;;;;;;;;;;7.00;99.90;;;;;;5050861;28;20006;-62
2023/04/12 00:41:35;;;;;;;;;;;7.10;99.90;;;;;;5069856;28;19946;-63
2023/04/12 00:44:06;;;;;;;;;;;7.10;99.90;;;;;;5061567;28;19946;-62
2023/04/12 00:46:39;;;;;;;;;;;7.10;99.90;;;;;;5053129;28;20019;-62
2023/04/12 00:49:12;;;;;;;;;;;7.10;99.90;;;;;;5050903;28;19964;-62
2023/04/12 00:51:44;;;;;;;;;;;7.00;99.90;;;;;;5059597;28;19955;-62
2023/04/12 00:54:12;;;;;;;;;;;7.00;99.90;;;;;;5068560;28;20365;-62
2023/04/12 00:56:44;;;;;;;;;;;6.90;99.90;;;;;;5054147;28;19955;-62
2023/04/12 00:59:17;;;;;;;;;;;6.80;99.90;;;;;;5069937;28;19971;-62
2023/04/12 01:01:49;;;;;;;;;;;6.80;99.90;;;;;;5050337;28;19921;-63
2023/04/12 01:04:17;;;;;;;;;;;6.70;99.90;;;;;;5068689;28;19962;-62
2023/04/12 01:07:00;;;;;;;;;;;6.60;99.90;;;;;;5070489;28;20397;-63
2023/04/12 01:09:35;;;;;;;;;;;6.60;99.90;;;;;;5069639;28;19921;-63
2023/04/12 01:12:20;;;;;;;;;;;6.50;99.90;;;;;;5052559;28;19920;-63
2023/04/12 01:15:04;;;;;;;;;;;6.50;99.90;;;;;;5051906;28;19924;-63
2023/04/12 01:17:52;;;;;;;;;;;6.40;99.90;;;;;;5052369;28;20385;-63
2023/04/12 01:20:25;;;;;;;;;;;6.40;99.90;;;;;;5066346;28;19921;-63
2023/04/12 01:23:16;;;;;;;;;;;6.30;99.90;;;;;;5068929;28;20024;-63
2023/04/12 01:25:47;;;;;;;;;;;6.30;99.90;;;;;;5049986;28;19979;-63
2023/04/12 01:28:16;;;;;;;;;;;6.20;99.90;;;;;;5066972;28;19932;-62
2023/04/12 01:30:52;;;;;;;;;;;6.20;99.90;;;;;;5049033;28;19920;-63
2023/04/12 01:33:20;;;;;;;;;;;6.20;99.90;;;;;;5069484;28;20385;-62
2023/04/12 01:35:53;;;;;;;;;;;6.20;99.90;;;;;;5070424;28;19928;-63
2023/04/12 01:38:27;;;;;;;;;;;6.20;99.90;;;;;;5068981;28;20007;-63
2023/04/12 01:40:54;;;;;;;;;;;6.20;99.90;;;;;;5052305;28;19920;-63
2023/04/12 01:43:26;;;;;;;;;;;6.20;99.90;;;;;;5051961;28;19924;-63
2023/04/12 01:45:58;;;;;;;;;;;6.20;99.90;;;;;;5030747;28;19983;-63
2023/04/12 01:48:25;;;;;;;;;;;6.20;99.90;;;;;;5068724;28;19946;-63
2023/04/12 01:51:18;;;;;;;;;;;6.20;99.90;;;;;;5067008;28;19935;-63
2023/04/12 01:53:56;;;;;;;;;;;6.20;99.90;;;;;;5070751;28;19921;-63
2023/04/12 01:56:27;;;;;;;;;;;6.20;99.90;;;;;;5051381;28;20355;-63
2023/04/12 01:58:59;;;;;;;;;;;6.20;99.90;;;;;;5052498;28;20007;-63
2023/04/12 02:01:31;;;;;;;;;;;6.10;99.90;;;;;;5021353;28;19920;-63
2023/04/12 02:04:05;;;;;;;;;;;6.10;99.90;;;;;;5051634;28;19963;-63
2023/04/12 02:06:38;;;;;;;;;;;6.10;99.90;;;;;;5069591;28;19989;-63
2023/04/12 02:09:09;;;;;;;;;;;6.20;99.90;;;;;;5072292;28;19924;-63
2023/04/12 02:11:45;;;;;;;;;;;6.20;99.90;;;;;;5072175;28;19924;-63
2023/04/12 02:14:16;;;;;;;;;;;6.20;99.90;;;;;;5051640;28;19931;-63
2023/04/12 02:16:49;;;;;;;;;;;6.20;99.90;;;;;;5055335;28;19924;-63
2023/04/12 02:19:16;;;;;;;;;;;6.20;99.90;;;;;;5071854;28;20289;-63
2023/04/12 02:21:48;;;;;;;;;;;6.20;99.90;;;;;;5055237;28;20524;-63
2023/04/12 02:24:20;;;;;;;;;;;6.20;99.90;;;;;;5072074;28;20023;-63
2023/04/12 02:26:53;;;;;;;;;;;6.20;99.90;;;;;;5071217;28;19924;-63
2023/04/12 02:29:26;;;;;;;;;;;6.20;99.90;;;;;;5054898;28;20444;-63
2023/04/12 02:31:57;;;;;;;;;;;6.20;99.90;;;;;;5052008;28;20423;-63
2023/04/12 02:34:33;;;;;;;;;;;6.20;99.90;;;;;;5052718;28;19926;-63
2023/04/12 02:37:16;;;;;;;;;;;6.20;99.90;;;;;;5053487;28;20403;-63
2023/04/12 02:39:43;;;;;;;;;;;6.20;99.90;;;;;;5071586;28;20031;-63
2023/04/12 02:42:15;;;;;;;;;;;6.10;99.90;;;;;;5070873;28;19924;-63
2023/04/12 02:44:47;;;;;;;;;;;6.20;99.90;;;;;;5071705;28;19924;-63
2023/04/12 02:47:20;;;;;;;;;;;6.20;99.90;;;;;;5054946;28;20011;-63
2023/04/12 02:49:51;;;;;;;;;;;6.20;99.90;;;;;;5053808;28;20385;-63
2023/04/12 02:52:24;;;;;;;;;;;6.20;99.90;;;;;;5071297;28;20346;-63
2023/04/12 02:55:02;;;;;;;;;;;6.30;99.90;;;;;;5071533;28;20266;-63
2023/04/12 02:57:29;;;;;;;;;;;6.30;99.90;;;;;;5070642;28;19930;-63
2023/04/12 03:00:07;;;;;;;;;;;6.30;99.90;;;;;;5054146;28;20015;-63
2023/04/12 03:02:42;;;;;;;;;;;6.30;99.90;;;;;;5059581;28;19960;-63
2023/04/12 03:05:20;;;;;;;;;;;6.40;99.90;;;;;;5050823;28;20015;-63
2023/04/12 03:07:51;;;;;;;;;;;6.40;99.90;;;;;;5072562;28;19924;-63
2023/04/12 03:10:31;;;;;;;;;;;6.40;99.90;;;;;;5054491;28;19925;-63
2023/04/12 03:13:04;;;;;;;;;;;6.40;99.90;;;;;;5038425;28;19971;-63
2023/04/12 03:15:34;;;;;;;;;;;6.40;99.90;;;;;;5054638;28;19920;-63
2023/04/12 03:18:06;;;;;;;;;;;6.30;99.90;;;;;;5053692;28;19935;-63
2023/04/12 03:20:42;;;;;;;;;;;6.30;99.90;;;;;;5071459;28;19928;-63
2023/04/12 03:23:09;;;;;;;;;;;6.30;99.90;;;;;;5071337;28;19928;-63
2023/04/12 03:25:44;;;;;;;;;;;6.30;99.90;;;;;;5071098;28;19952;-63
2023/04/12 03:28:29;;;;;;;;;;;6.20;99.90;;;;;;5060446;28;20014;-63
2023/04/12 03:31:04;;;;;;;;;;;6.30;99.90;;;;;;5069357;28;20373;-63
2023/04/12 03:33:39;;;;;;;;;;;6.20;99.90;;;;;;5070250;28;19956;-63
2023/04/12 03:36:20;;;;;;;;;;;6.20;99.90;;;;;;5070503;28;19960;-63
2023/04/12 03:38:57;;;;;;;;;;;6.20;99.90;;;;;;5069400;28;19931;-63
2023/04/12 03:41:32;;;;;;;;;;;6.20;99.90;;;;;;5050137;28;19920;-63
2023/04/12 03:44:04;;;;;;;;;;;6.10;99.90;;;;;;5071057;28;19924;-63
2023/04/12 03:46:32;;;;;;;;;;;6.00;99.90;;;;;;5054825;28;20380;-63
2023/04/12 03:49:08;;;;;;;;;;;6.00;99.90;;;;;;5054192;28;20015;-63
2023/04/12 03:51:41;;;;;;;;;;;6.00;99.90;;;;;;5052024;28;20011;-63
2023/04/12 03:54:09;;;;;;;;;;;6.00;99.90;;;;;;5067620;28;19924;-63
2023/04/12 03:57:00;;;;;;;;;;;5.90;99.90;;;;;;5071972;28;20010;-68
2023/04/12 03:59:51;;;;;;;;;;;5.90;99.90;;;;;;5060380;28;19951;-63
2023/04/12 04:02:23;;;;;;;;;;;6.00;99.90;;;;;;5074132;28;20281;-63
2023/04/12 04:04:56;;;;;;;;;;;6.00;99.90;;;;;;5050709;28;19920;-63
2023/04/12 04:07:28;;;;;;;;;;;6.00;99.90;;;;;;5067669;28;19924;-68
2023/04/12 04:09:55;;;;;;;;;;;5.90;99.90;;;;;;5070430;28;19920;-63
2023/04/12 04:12:31;;;;;;;;;;;5.90;99.90;;;;;;5069785;28;19924;-63
2023/04/12 04:15:03;;;;;;;;;;;5.90;99.90;;;;;;5053479;28;19921;-63
2023/04/12 04:17:35;;;;;;;;;;;5.90;99.90;;;;;;5050892;28;19924;-63
2023/04/12 04:20:08;;;;;;;;;;;5.90;99.90;;;;;;5053635;28;20004;-63
2023/04/12 04:22:44;;;;;;;;;;;5.90;99.90;;;;;;5053609;28;20441;-63
2023/04/12 04:25:16;;;;;;;;;;;5.90;99.90;;;;;;5070421;28;19920;-63
2023/04/12 04:27:52;;;;;;;;;;;5.90;99.90;;;;;;5053097;28;20364;-63
2023/04/12 04:30:26;;;;;;;;;;;6.00;99.90;;;;;;5051674;28;20014;-63
2023/04/12 04:32:57;;;;;;;;;;;6.00;99.90;;;;;;5051734;28;19928;-63
2023/04/12 04:35:30;;;;;;;;;;;6.00;99.90;;;;;;5052157;28;20451;-63
2023/04/12 04:38:19;;;;;;;;;;;6.00;99.90;;;;;;5054559;28;19927;-63
2023/04/12 04:40:54;;;;;;;;;;;6.00;99.90;;;;;;5053537;28;19982;-63
2023/04/12 04:43:38;;;;;;;;;;;6.00;99.90;;;;;;5053218;28;19964;-63
2023/04/12 04:46:10;;;;;;;;;;;5.90;99.90;;;;;;5053724;28;20353;-63
2023/04/12 04:48:42;;;;;;;;;;;5.90;99.90;;;;;;5053350;28;19927;-63
2023/04/12 04:51:13;;;;;;;;;;;5.90;99.90;;;;;;5053445;28;19924;-63
2023/04/12 04:53:41;;;;;;;;;;;5.90;99.90;;;;;;5071437;28;19970;-63
2023/04/12 04:56:14;;;;;;;;;;;5.90;99.90;;;;;;5049235;28;19920;-63
2023/04/12 04:58:49;;;;;;;;;;;5.90;99.90;;;;;;5069485;28;20390;-63
2023/04/12 05:01:17;;;;;;;;;;;6.00;99.90;;;;;;5066103;28;19927;-63
2023/04/12 05:03:50;;;;;;;;;;;5.90;99.90;;;;;;5052855;28;20389;-63
2023/04/12 05:06:24;;;;;;;;;;;5.90;99.90;;;;;;5068507;28;19974;-63
2023/04/12 05:08:59;;;;;;;;;;;5.90;99.90;;;;;;5059839;28;19924;-62
2023/04/12 05:11:28;;;;;;;;;;;5.90;99.90;;;;;;5052411;28;20027;-64
2023/04/12 05:14:01;;;;;;;;;;;6.00;99.90;;;;;;5050763;28;20363;-63
2023/04/12 05:16:34;;;;;;;;;;;6.00;99.90;;;;;;5053008;28;19935;-63
2023/04/12 05:19:06;;;;;;;;;;;6.00;99.90;;;;;;5052797;28;19928;-63
2023/04/12 05:21:33;;;;;;;;;;;6.00;99.90;;;;;;5072334;28;20300;-65
2023/04/12 05:24:05;;;;;;;;;;;6.00;99.90;;;;;;5050177;28;19920;-63
2023/04/12 05:26:38;;;;;;;;;;;6.00;99.90;;;;;;5065364;28;20022;-63
2023/04/12 05:29:12;;;;;;;;;;;6.00;99.90;;;;;;5052545;28;20381;-63
2023/04/12 05:31:45;;;;;;;;;;;6.00;99.90;;;;;;5068887;28;19920;-63
2023/04/12 05:34:19;;;;;;;;;;;6.10;99.90;;;;;;5066909;28;19924;-63
2023/04/12 05:36:54;;;;;;;;;;;6.10;99.90;;;;;;5051316;28;19928;-63
2023/04/12 05:39:22;;;;;;;;;;;6.10;99.90;;;;;;5047356;28;20003;-63
2023/04/12 05:41:54;;;;;;;;;;;6.10;99.90;;;;;;5049946;28;20020;-63
2023/04/12 05:44:25;;;;;;;;;;;6.00;99.90;;;;;;5054841;28;20002;-63
2023/04/12 05:46:57;;;;;;;;;;;6.00;99.90;;;;;;5072406;28;20463;-63
2023/04/12 05:49:32;;;;;;;;;;;6.00;99.90;;;;;;5054676;28;19931;-63
2023/04/12 05:52:07;;;;;;;;;;;6.00;99.90;;;;;;5055467;28;20282;-63
2023/04/12 05:54:39;;;;;;;;;;;6.00;99.90;;;;;;5072612;28;20462;-63
2023/04/12 05:57:16;;;;;;;;;;;6.00;99.90;;;;;;5056242;28;19920;-63
2023/04/12 05:59:48;;;;;;;;;;;6.00;99.90;;;;;;5067823;28;19928;-63
2023/04/12 06:02:24;;;;;;;;;;;6.10;99.90;;;;;;5070652;28;19924;-63
2023/04/12 06:04:56;;;;;;;;;;;6.10;99.90;;;;;;5052947;28;19924;-64
2023/04/12 06:07:26;;;;;;;;;;;6.10;99.90;;;;;;5067849;28;19921;-63
2023/04/12 06:09:58;;;;;;;;;;;6.10;99.90;;;;;;5054835;28;19943;-63
2023/04/12 06:12:30;;;;;;;;;;;6.10;99.90;;;;;;5053090;28;19921;-63
2023/04/12 06:15:02;;;;;;;;;;;6.10;99.90;;;;;;5054561;28;19924;-63
2023/04/12 06:17:34;;;;;;;;;;;6.20;99.90;;;;;;5043125;28;19924;-63
2023/04/12 06:20:08;;;;;;;;;;;6.20;99.90;;;;;;5054687;28;19928;-63
2023/04/12 06:22:39;;;;;;;;;;;6.20;99.90;;;;;;5072452;28;20320;-63
2023/04/12 06:25:15;;;;;;;;;;;6.20;99.90;;;;;;5054807;28;19928;-63
2023/04/12 06:27:47;;;;;;;;;;;6.20;99.90;;;;;;5054807;28;20332;-63
2023/04/12 06:30:17;;;;;;;;;;;6.20;99.90;;;;;;5069935;28;19973;-63
2023/04/12 06:32:51;;;;;;;;;;;6.30;99.90;;;;;;5063782;28;20300;-63
2023/04/12 06:35:23;;;;;;;;;;;6.30;99.90;;;;;;5055235;28;19920;-63
2023/04/12 06:37:54;;;;;;;;;;;6.30;99.90;;;;;;5055002;28;20335;-63
2023/04/12 06:40:26;;;;;;;;;;;6.30;99.90;;;;;;5072564;28;20315;-63
2023/04/12 06:42:58;;;;;;;;;;;6.30;99.90;;;;;;5068505;28;19928;-63
2023/04/12 06:45:30;;;;;;;;;;;6.40;99.90;;;;;;5054004;28;19920;-63
2023/04/12 06:48:02;;;;;;;;;;;6.40;99.90;;;;;;5054472;28;19928;-63
2023/04/12 06:50:34;;;;;;;;;;;6.50;99.90;;;;;;5066385;28;19925;-63
2023/04/12 06:53:06;;;;;;;;;;;6.50;99.90;;;;;;5053535;28;19924;-63
2023/04/12 06:55:38;;;;;;;;;;;6.60;99.90;;;;;;5052962;28;19928;-63
2023/04/12 06:58:10;;;;;;;;;;;6.60;99.90;;;;;;5071653;28;20021;-63
2023/04/12 07:00:42;;;;;;;;;;;6.60;99.90;;;;;;5071152;28;19932;-66
2023/04/12 07:03:13;;;;;;;;;;;6.60;99.90;;;;;;5069964;28;20343;-62
2023/04/12 07:05:46;;;;;;;;;;;6.60;99.90;;;;;;5070335;28;19927;-63
2023/04/12 07:08:17;;;;;;;;;;;6.60;99.90;;;;;;5053330;28;19928;-63
2023/04/12 07:10:52;;;;;;;;;;;6.60;99.90;;;;;;5052901;28;20348;-63
2023/04/12 07:13:24;;;;;;;;;;;6.60;99.90;;;;;;5069188;28;19924;-63
2023/04/12 07:15:56;;;;;;;;;;;6.60;99.90;;;;;;5070234;28;19974;-62
2023/04/12 07:18:23;;;;;;;;;;;6.60;99.90;;;;;;5049108;28;19921;-63
2023/04/12 07:20:58;;;;;;;;;;;6.60;99.90;;;;;;5068069;28;19924;-63
2023/04/12 07:23:26;;;;;;;;;;;6.60;99.90;;;;;;5070299;28;19920;-63
2023/04/12 07:25:58;;;;;;;;;;;6.70;99.90;;;;;;5069462;28;19982;-63
2023/04/12 07:28:30;;;;;;;;;;;6.70;99.90;;;;;;5065624;28;19939;-63
2023/04/12 07:31:05;;;;;;;;;;;6.70;99.90;;;;;;5086096;28;19924;-64
2023/04/12 07:33:37;;;;;;;;;;;6.70;99.90;;;;;;5082756;28;20414;-67
2023/04/12 07:36:09;;;;;;;;;;;6.70;99.90;;;;;;5055169;28;20408;-63
2023/04/12 07:38:41;;;;;;;;;;;6.80;99.90;;;;;;5069271;28;19987;-63
2023/04/12 07:41:13;;;;;;;;;;;6.70;99.90;;;;;;5054630;28;19974;-63
2023/04/12 07:43:44;;;;;;;;;;;6.70;99.90;;;;;;5065033;28;19920;-63
2023/04/12 07:46:16;;;;;;;;;;;6.80;99.90;;;;;;5066451;28;19928;-63
2023/04/12 07:48:48;;;;;;;;;;;6.80;99.90;;;;;;5069866;28;19924;-63
2023/04/12 07:51:20;;;;;;;;;;;6.80;99.90;;;;;;5069984;28;19936;-64
2023/04/12 07:53:51;;;;;;;;;;;6.80;99.90;;;;;;5071948;28;20346;-63
2023/04/12 07:56:18;;;;;;;;;;;6.80;99.90;;;;;;5070943;28;19925;-63
2023/04/12 07:58:49;;;;;;;;;;;6.80;99.90;;;;;;5071078;28;19970;-63
2023/04/12 08:01:21;;;;;;;;;;;6.90;99.90;;;;;;5069231;28;19947;-63
2023/04/12 08:03:48;;;;;;;;;;;6.90;99.90;;;;;;5068982;28;19931;-63
2023/04/12 08:06:20;;;;;;;;;;;6.80;99.90;;;;;;5053836;28;19924;-63
2023/04/12 08:08:51;;;;;;;;;;;6.90;99.90;;;;;;5037819;28;19928;-63
2023/04/12 08:11:23;;;;;;;;;;;6.90;99.90;;;;;;5069160;28;19928;-63
2023/04/12 08:13:55;;;;;;;;;;;7.00;99.90;;;;;;5050652;28;19974;-63
2023/04/12 08:16:26;;;;;;;;;;;7.00;99.90;;;;;;5068319;28;19924;-63
2023/04/12 08:18:58;;;;;;;;;;;7.10;99.90;;;;;;5064961;28;19927;-63
2023/04/12 08:21:30;;;;;;;;;;;7.10;99.90;;;;;;5066529;28;20289;-63
2023/04/12 08:24:02;;;;;;;;;;;7.10;99.90;;;;;;5053766;28;19931;-63
2023/04/12 08:26:34;;;;;;;;;;;7.10;99.90;;;;;;5067246;28;19966;-63
2023/04/12 08:29:06;;;;;;;;;;;7.20;99.90;;;;;;5044231;28;19920;-63
2023/04/12 08:31:38;;;;;;;;;;;7.20;99.90;;;;;;5049211;28;19924;-63
2023/04/12 08:34:10;;;;;;;;;;;7.30;99.90;;;;;;5060007;28;19928;-63
2023/04/12 08:36:41;;;;;;;;;;;7.50;99.90;;;;;;5068363;28;19948;-63
2023/04/12 08:39:08;;;;;;;;;;;7.60;99.90;;;;;;5049723;28;19959;-64
2023/04/12 08:41:36;;;;;;;;;;;7.70;99.90;;;;;;5060603;28;20023;-64
2023/04/12 08:44:09;;;;;;;;;;;7.80;99.90;;;;;;5051394;28;19927;-64
2023/04/12 08:46:41;;;;;;;;;;;7.90;99.90;;;;;;5062085;28;20454;-63
2023/04/12 08:49:15;;;;;;;;;;;8.10;99.90;;;;;;5059200;28;20478;-64
2023/04/12 08:51:47;;;;;;;;;;;8.20;99.90;;;;;;5062027;28;20617;-63
2023/04/12 08:54:18;;;;;;;;;;;8.30;99.90;;;;;;5064452;28;19932;-63
2023/04/12 08:56:52;;;;;;;;;;;8.50;99.90;;;;;;5067348;28;19971;-63
2023/04/12 08:59:19;;;;;;;;;;;8.60;99.90;;;;;;5067568;28;19921;-63
2023/04/12 09:01:46;;;;;;;;;;;8.60;99.90;;;;;;5065350;28;19928;-63
2023/04/12 09:04:17;;;;;;;;;;;8.60;99.90;;;;;;5064967;28;19932;-63
2023/04/12 09:06:49;;;;;;;;;;;8.60;99.90;;;;;;5061747;28;19959;-63
2023/04/12 09:09:48;;;;;;;;;;;8.60;99.90;;;;;;5064471;28;19924;-63
2023/04/12 09:12:22;;;;;;;;;;;8.70;99.90;;;;;;5065237;28;20272;-63
2023/04/12 09:15:07;;;;;;;;;;;8.80;99.90;;;;;;5058909;28;19924;-63
2023/04/12 09:17:39;;;;;;;;;;;8.90;99.90;;;;;;5070611;28;19949;-63
2023/04/12 09:20:14;;;;;;;;;;;9.00;99.90;;;;;;5054127;28;19935;-63
2023/04/12 09:22:45;;;;;;;;;;;9.10;99.90;;;;;;5067299;28;19924;-63
2023/04/12 09:25:17;;;;;;;;;;;9.20;99.90;;;;;;5071626;28;19925;-63
2023/04/12 09:27:49;;;;;;;;;;;9.30;99.90;;;;;;5069909;28;19920;-63
2023/04/12 09:30:21;;;;;;;;;;;9.40;99.90;;;;;;5056697;28;19932;-63
2023/04/12 09:32:54;;;;;;;;;;;9.50;99.90;;;;;;5069463;28;19928;-63
2023/04/12 09:35:34;;;;;;;;;;;9.60;99.90;;;;;;5066983;28;19924;-63
2023/04/12 09:38:07;;;;;;;;;;;9.60;99.90;;;;;;5068464;28;19924;-64
2023/04/12 09:40:39;;;;;;;;;;;9.80;99.90;;;;;;5073343;28;19960;-65
2023/04/12 09:43:11;;;;;;;;;;;9.90;99.90;;;;;;5071469;28;20308;-63
2023/04/12 09:45:43;;;;;;;;;;;10.00;99.90;;;;;;5057377;28;19928;-64
2023/04/12 09:48:19;;;;;;;;;;;10.10;99.90;;;;;;5068764;28;19968;-63
2023/04/12 09:50:57;;;;;;;;;;;10.00;99.90;;;;;;5074179;28;19928;-64
2023/04/12 09:53:29;;;;;;;;;;;10.10;99.90;;;;;;5068865;28;19924;-64
2023/04/12 09:56:02;;;;;;;;;;;10.10;99.90;;;;;;5074060;28;19935;-63
2023/04/12 09:58:35;;;;;;;;;;;10.20;99.90;;;;;;5051219;28;19935;-64
2023/04/12 10:01:02;;;;;;;;;;;10.10;99.90;;;;;;5070431;28;19947;-64
2023/04/12 10:03:29;;;;;;;;;;;10.10;99.90;;;;;;5068897;28;20388;-63
2023/04/12 10:06:03;;;;;;;;;;;10.10;99.90;;;;;;5071418;28;20392;-63
2023/04/12 10:08:36;;;;;;;;;;;10.10;99.90;;;;;;5072209;28;19924;-63
2023/04/12 10:11:08;;;;;;;;;;;10.20;99.90;;;;;;5074343;28;19931;-63
2023/04/12 10:13:42;;;;;;;;;;;10.20;99.90;;;;;;5072883;28;19920;-64
2023/04/12 10:16:08;;;;;;;;;;;10.30;99.90;;;;;;5070172;28;20018;-63
2023/04/12 10:18:38;;;;;;;;;;;10.50;99.90;;;;;;5065643;28;19920;-63
2023/04/12 10:21:10;;;;;;;;;;;10.60;99.90;;;;;;5070963;28;19921;-63
2023/04/12 10:23:46;;;;;;;;;;;10.70;99.90;;;;;;5072939;28;19925;-63
2023/04/12 10:26:18;;;;;;;;;;;10.70;99.90;;;;;;5053543;28;19920;-63
2023/04/12 10:29:09;;;;;;;;;;;10.80;99.90;;;;;;5073125;28;19928;-63
2023/04/12 10:31:41;;;;;;;;;;;10.90;99.90;;;;;;5054670;28;19920;-63
2023/04/12 10:34:12;;;;;;;;;;;11.10;99.90;;;;;;5052566;28;20407;-63
2023/04/12 10:36:52;;;;;;;;;;;11.20;99.90;;;;;;5067057;28;19974;-63
2023/04/12 10:39:39;;;;;;;;;;;11.20;99.90;;;;;;5070984;28;19920;-62
2023/04/12 10:42:15;;;;;;;;;;;11.20;99.90;;;;;;5061653;28;19920;-62
2023/04/12 10:44:48;;;;;;;;;;;11.20;99.90;;;;;;5067835;28;20320;-62
2023/04/12 10:47:52;;;;;;;;;;;11.30;99.90;;;;;;5049272;28;19925;-62
2023/04/12 10:50:26;;;;;;;;;;;11.40;99.90;;;;;;5059705;28;19921;-62
2023/04/12 10:53:09;;;;;;;;;;;11.50;99.90;;;;;;5065206;28;19920;-63
2023/04/12 10:55:43;;;;;;;;;;;11.60;99.90;;;;;;5056029;28;19920;-61
2023/04/12 10:58:40;;;;;;;;;;;11.60;99.90;;;;;;5055044;28;19920;-63
2023/04/12 11:01:12;;;;;;;;;;;11.50;99.90;;;;;;5066529;28;19932;-63
2023/04/12 11:03:58;;;;;;;;;;;11.60;99.90;;;;;;5049433;28;20421;-64
2023/04/12 11:06:39;;;;;;;;;;;11.70;99.90;;;;;;5052763;28;19931;-64
2023/04/12 11:09:33;;;;;;;;;;;11.70;99.90;;;;;;5064440;28;19932;-64
2023/04/12 11:12:05;;;;;;;;;;;11.60;99.90;;;;;;5068784;28;20694;-63
2023/04/12 11:14:35;;;;;;;;;;;11.70;99.90;;;;;;5070110;28;20328;-63
2023/04/12 11:17:07;;;;;;;;;;;11.70;99.90;;;;;;5069546;28;21098;-63
2023/04/12 11:19:40;;;;;;;;;;;11.70;99.90;;;;;;5052177;28;19921;-63
2023/04/12 11:22:09;;;;;;;;;;;11.80;99.90;;;;;;5069174;28;19921;-63
2023/04/12 11:24:51;;;;;;;;;;;11.70;99.90;;;;;;5070847;28;19970;-63
2023/04/12 11:27:23;;;;;;;;;;;11.80;99.90;;;;;;5066688;28;19950;-63
2023/04/12 11:29:56;;;;;;;;;;;11.90;99.90;;;;;;5050683;28;19932;-63
2023/04/12 11:32:30;;;;;;;;;;;11.90;99.90;;;;;;5067479;28;19920;-63
2023/04/12 11:35:02;;;;;;;;;;;11.90;99.90;;;;;;5069214;28;19924;-63
2023/04/12 11:37:36;;;;;;;;;;;12.00;99.90;;;;;;5053315;28;19920;-63
2023/04/12 11:40:08;;;;;;;;;;;12.00;99.90;;;;;;5070341;28;20010;-63
2023/04/12 11:42:40;;;;;;;;;;;12.00;99.90;;;;;;5071638;28;19974;-63
2023/04/12 11:45:17;;;;;;;;;;;12.10;99.90;;;;;;5071868;28;19925;-64
2023/04/12 11:47:50;;;;;;;;;;;12.20;99.90;;;;;;5052473;28;20380;-64
2023/04/12 11:50:29;;;;;;;;;;;12.20;99.90;;;;;;5069198;28;19924;-63
2023/04/12 11:53:07;;;;;;;;;;;12.20;99.90;;;;;;5068671;28;20339;-63
2023/04/12 11:55:39;;;;;;;;;;;12.20;99.90;;;;;;5066654;28;19920;-64
2023/04/12 11:58:11;;;;;;;;;;;12.10;99.90;;;;;;5070166;28;19924;-63
2023/04/12 12:00:44;;;;;;;;;;;12.00;99.90;;;;;;5058293;28;20339;-63
2023/04/12 12:03:17;;;;;;;;;;;12.10;99.90;;;;;;5071396;28;20011;-63
2023/04/12 12:05:49;;;;;;;;;;;12.00;99.90;;;;;;5071395;28;20407;-63
2023/04/12 12:08:23;;;;;;;;;;;12.00;99.90;;;;;;5048718;28;19924;-63
2023/04/12 12:10:54;;;;;;;;;;;12.10;99.90;;;;;;5066909;28;19924;-63
2023/04/12 12:13:26;;;;;;;;;;;12.00;99.90;;;;;;5064825;28;19964;-63
2023/04/12 12:15:58;;;;;;;;;;;12.10;99.90;;;;;;5068063;28;19928;-64
2023/04/12 12:18:29;;;;;;;;;;;12.00;99.90;;;;;;5070718;28;20328;-64
2023/04/12 12:20:56;;;;;;;;;;;12.00;99.90;;;;;;5054004;28;19966;-64
2023/04/12 12:23:31;;;;;;;;;;;12.00;99.90;;;;;;5065506;28;19921;-64
2023/04/12 12:26:04;;;;;;;;;;;12.00;99.90;;;;;;5058413;28;20393;-64
2023/04/12 12:28:39;;;;;;;;;;;12.00;99.90;;;;;;5069648;28;19920;-64
2023/04/12 12:31:08;;;;;;;;;;;11.90;99.90;;;;;;5048654;28;19924;-63
2023/04/12 12:33:41;;;;;;;;;;;11.90;99.90;;;;;;5064078;28;20397;-63
2023/04/12 12:36:16;;;;;;;;;;;11.90;99.90;;;;;;5035128;28;19947;-64
2023/04/12 12:38:51;;;;;;;;;;;11.90;99.90;;;;;;5068948;28;19920;-64
2023/04/12 12:41:23;;;;;;;;;;;11.90;99.90;;;;;;5065047;28;19929;-63
2023/04/12 12:43:55;;;;;;;;;;;11.80;99.90;;;;;;5067609;28;19924;-64
2023/04/12 12:46:27;;;;;;;;;;;11.70;99.90;;;;;;5049298;28;19929;-63
2023/04/12 12:48:59;;;;;;;;;;;11.60;99.90;;;;;;5052281;28;19924;-63
2023/04/12 12:51:25;;;;;;;;;;;11.60;99.90;;;;;;5070624;28;20039;-63
2023/04/12 12:53:57;;;;;;;;;;;11.70;99.90;;;;;;5051527;28;19925;-63
2023/04/12 12:56:24;;;;;;;;;;;11.70;99.90;;;;;;5066420;28;19920;-64
2023/04/12 12:58:56;;;;;;;;;;;11.70;99.90;;;;;;5074102;28;19969;-64
2023/04/12 13:01:27;;;;;;;;;;;11.90;99.90;;;;;;5066779;28;19924;-63
2023/04/12 13:03:59;;;;;;;;;;;11.90;99.90;;;;;;5060524;28;19925;-64
2023/04/12 13:06:31;;;;;;;;;;;12.10;99.90;;;;;;5061924;28;19974;-63
2023/04/12 13:09:03;;;;;;;;;;;12.20;99.90;;;;;;5069313;28;19928;-63
2023/04/12 13:11:29;;;;;;;;;;;12.30;99.90;;;;;;5070908;28;19920;-63
2023/04/12 13:14:01;;;;;;;;;;;12.50;99.90;;;;;;5069213;28;19920;-63
2023/04/12 13:16:32;;;;;;;;;;;12.70;99.90;;;;;;5067266;28;19928;-63
2023/04/12 13:19:04;;;;;;;;;;;13.00;99.90;;;;;;5067096;28;19920;-64
2023/04/12 13:21:36;;;;;;;;;;;13.20;99.90;;;;;;5065628;28;19924;-62
2023/04/12 13:24:08;;;;;;;;;;;13.50;99.90;;;;;;5067973;28;20346;-63
2023/04/12 13:26:39;;;;;;;;;;;13.70;99.90;;;;;;5070874;28;19920;-63
2023/04/12 13:29:11;;;;;;;;;;;13.70;99.90;;;;;;5068589;28;19966;-63
2023/04/12 13:31:43;;;;;;;;;;;13.50;99.90;;;;;;5065812;28;19932;-63
2023/04/12 13:34:15;;;;;;;;;;;13.40;99.90;;;;;;5072319;28;19928;-63
2023/04/12 13:36:48;;;;;;;;;;;13.30;99.90;;;;;;5066233;28;19920;-63
2023/04/12 13:39:14;;;;;;;;;;;13.20;99.90;;;;;;5068448;28;20385;-63
2023/04/12 13:41:46;;;;;;;;;;;13.10;99.90;;;;;;5064116;28;19931;-63
2023/04/12 13:44:18;;;;;;;;;;;13.10;99.90;;;;;;5070268;28;19924;-63
2023/04/12 13:46:50;;;;;;;;;;;13.00;99.90;;;;;;5048874;28;19925;-63
2023/04/12 13:49:22;;;;;;;;;;;13.10;99.90;;;;;;5065578;28;19924;-63
2023/04/12 13:51:54;;;;;;;;;;;13.10;99.90;;;;;;5066393;28;19959;-63
2023/04/12 13:54:26;;;;;;;;;;;13.10;99.90;;;;;;5065886;28;19955;-63
2023/04/12 13:56:58;;;;;;;;;;;13.20;99.90;;;;;;5065869;28;19925;-63
2023/04/12 13:59:30;;;;;;;;;;;13.20;99.90;;;;;;5071119;28;19921;-63
2023/04/12 14:02:01;;;;;;;;;;;13.30;99.90;;;;;;5038240;28;19927;-63
2023/04/12 14:04:33;;;;;;;;;;;13.20;99.90;;;;;;5074508;28;19924;-63
2023/04/12 14:07:05;;;;;;;;;;;13.30;99.90;;;;;;5062642;28;19924;-63
2023/04/12 14:09:36;;;;;;;;;;;13.30;99.90;;;;;;5070313;28;19932;-63
2023/04/12 14:12:08;;;;;;;;;;;13.30;99.90;;;;;;5036550;28;19954;-63
2023/04/12 14:14:40;;;;;;;;;;;13.30;99.90;;;;;;5069574;28;19974;-63
2023/04/12 14:17:11;;;;;;;;;;;13.40;99.90;;;;;;5071486;28;19939;-63
2023/04/12 14:19:43;;;;;;;;;;;13.40;99.90;;;;;;5062686;28;19925;-63
2023/04/12 14:22:15;;;;;;;;;;;13.40;99.90;;;;;;5071962;28;19982;-63
2023/04/12 14:24:46;;;;;;;;;;;13.40;99.90;;;;;;5072055;28;19925;-63
2023/04/12 14:27:18;;;;;;;;;;;13.50;99.90;;;;;;5072094;28;19927;-63
2023/04/12 14:29:50;;;;;;;;;;;13.50;99.90;;;;;;5062401;28;19924;-63
2023/04/12 14:32:21;;;;;;;;;;;13.50;99.90;;;;;;5067240;28;19924;-63
2023/04/12 14:34:53;;;;;;;;;;;13.50;99.90;;;;;;5049316;28;19924;-63
2023/04/12 14:37:25;;;;;;;;;;;13.60;99.90;;;;;;5066516;28;19920;-63
2023/04/12 14:39:57;;;;;;;;;;;13.60;99.90;;;;;;5072067;28;19927;-63
2023/04/12 14:42:29;;;;;;;;;;;13.70;99.90;;;;;;5072880;28;19920;-63
2023/04/12 14:45:01;;;;;;;;;;;13.70;99.90;;;;;;5065400;28;19982;-63
2023/04/12 14:47:33;;;;;;;;;;;13.70;99.90;;;;;;5073519;28;20031;-63
2023/04/12 14:50:05;;;;;;;;;;;13.90;99.90;;;;;;5073323;28;20745;-63
2023/04/12 14:52:37;;;;;;;;;;;14.00;99.90;;;;;;5073610;28;19966;-63
2023/04/12 14:55:09;;;;;;;;;;;14.00;99.90;;;;;;5070249;28;19921;-62
2023/04/12 14:57:41;;;;;;;;;;;14.20;99.90;;;;;;5070599;28;19924;-63
2023/04/12 15:00:14;;;;;;;;;;;14.20;99.90;;;;;;5070574;28;19931;-63